Ct Longford — 9HYM9 — position and weather

sailwx.info

Track history (hours):
 
Tides and Currents Weather Stations Pressure Air Temp Water Temp Dewpoint Dewpoint Depression Visibility Wind Speed Wind Dir Waves Ship Positions

Ct Longford

Last reported at 2017-Nov-17 19:12 UTC. Time now 2017-Nov-17 19:59 UTC.
Position N 36°08' W 005°25'.

Length 117 m; draft 7 m.

Type: Tanker. MMSI: 249706000.

Date/timePositionNaut miles runAvg speedWind from/ knotsBaromVisibWave heightAir tempDewpointWater temp
2017-Nov-17 19:12N 36°08' W 005°25'0 2.3
2017-Nov-17 19:01N 36°08' W 005°26'2 0.2
2017-Nov-17 06:09N 36°08' W 005°23'0 0.1
2017-Nov-17 05:57N 36°08' W 005°23'0 0.0
2017-Nov-17 05:24N 36°08' W 005°23'0 0.0
2017-Nov-17 04:57N 36°08' W 005°23'0 0.1
2017-Nov-17 04:30N 36°08' W 005°23'0 0.0
2017-Nov-17 03:57N 36°08' W 005°23'0 0.1
2017-Nov-17 03:24N 36°08' W 005°23'0 0.0
2017-Nov-17 03:00N 36°08' W 005°23'0 0.0
2017-Nov-17 02:30N 36°08' W 005°23'0 0.1
2017-Nov-17 02:00N 36°08' W 005°23'0 0.0
2017-Nov-17 01:24N 36°08' W 005°23'0 0.1
2017-Nov-17 01:00N 36°08' W 005°23'2 0.1
2017-Nov-16 05:46N 36°09' W 005°23'0 0.0
2017-Nov-16 05:28N 36°09' W 005°23'1 2.0
2017-Nov-16 05:00N 36°08' W 005°23'2 4.1
2017-Nov-16 04:29N 36°06' W 005°22'0 0.0
2017-Nov-16 03:56N 36°06' W 005°22'0 0.0
2017-Nov-16 03:26N 36°06' W 005°22'0 0.0
2017-Nov-16 02:53N 36°06' W 005°22'0 0.1
2017-Nov-16 02:08N 36°06' W 005°22'0 0.1
2017-Nov-16 01:56N 36°06' W 005°22'0 0.0
2017-Nov-16 01:29N 36°06' W 005°22'0 0.0
2017-Nov-16 00:59N 36°06' W 005°22'0 0.0
2017-Nov-16 00:26N 36°06' W 005°22'0 0.1
2017-Nov-15 23:59N 36°06' W 005°22'0 0.1
2017-Nov-15 23:29N 36°06' W 005°22'0 0.0
2017-Nov-15 22:02N 36°06' W 005°22'0 0.6
2017-Nov-15 21:59N 36°06' W 005°22'0 0.0
2017-Nov-15 21:30N 36°06' W 005°22'3 0.2
2017-Nov-15 06:35N 36°09' W 005°22'0 0.0
2017-Nov-15 06:05N 36°09' W 005°22'0 0.1
2017-Nov-15 05:59N 36°09' W 005°22'0 0.0
2017-Nov-15 05:29N 36°09' W 005°22'0 0.0
2017-Nov-15 04:56N 36°09' W 005°22'0 0.0
2017-Nov-15 04:23N 36°09' W 005°22'0 0.1
2017-Nov-15 03:39N 36°09' W 005°22'0 0.5
2017-Nov-15 03:29N 36°09' W 005°22'1 3.0
2017-Nov-15 03:00N 36°08' W 005°23'1 0.0
2017-Nov-14 04:39N 36°09' W 005°23'0 0.1
2017-Nov-14 04:21N 36°09' W 005°23'0 0.0
2017-Nov-14 04:00N 36°09' W 005°23'0 0.0
2017-Nov-14 03:30N 36°09' W 005°23'0 0.1
2017-Nov-14 02:51N 36°09' W 005°23'0 0.1
2017-Nov-14 02:21N 36°09' W 005°23'0 0.0
2017-Nov-14 01:51N 36°09' W 005°23'0 0.1
2017-Nov-14 01:30N 36°09' W 005°23'1 1.2
2017-Nov-14 01:00N 36°09' W 005°23'0 0.3
2017-Nov-14 00:30N 36°09' W 005°23'0 0.3
2017-Nov-14 00:00N 36°09' W 005°23'0 0.4
2017-Nov-13 23:30N 36°09' W 005°23'1 3.0
2017-Nov-13 23:00N 36°07' W 005°22'0 0.1
2017-Nov-13 22:30N 36°07' W 005°22'0 0.0
2017-Nov-13 22:00N 36°07' W 005°22'1 0.1
2017-Nov-13 02:00N 36°08' W 005°23'1 2.3
2017-Nov-13 01:28N 36°07' W 005°22'0 0.0
2017-Nov-13 00:55N 36°07' W 005°22'0 0.0
2017-Nov-13 00:28N 36°07' W 005°22'0 0.0
2017-Nov-12 23:58N 36°07' W 005°22'0 0.0
2017-Nov-12 23:28N 36°07' W 005°22'0 0.0
2017-Nov-12 22:10N 36°07' W 005°22'0 0.1
2017-Nov-12 21:58N 36°07' W 005°22'0 0.0
2017-Nov-12 21:28N 36°07' W 005°22'0 0.1
2017-Nov-12 20:28N 36°08' W 005°22'0 0.3
2017-Nov-12 19:58N 36°07' W 005°22'0 0.0
2017-Nov-12 19:28N 36°07' W 005°22'0 0.1
2017-Nov-12 18:58N 36°07' W 005°22'0 0.1
2017-Nov-12 16:46N 36°08' W 005°22'0 0.1
2017-Nov-12 16:25N 36°08' W 005°22'0 0.0
2017-Nov-12 15:55N 36°08' W 005°22'0 0.0
2017-Nov-12 15:28N 36°08' W 005°22'0 0.1
2017-Nov-12 14:59N 36°08' W 005°22'0 0.5
2017-Nov-12 14:31N 36°08' W 005°22'2 3.6
2017-Nov-12 14:00N 36°09' W 005°23'0 0.2
2017-Nov-12 13:30N 36°09' W 005°23'0 0.3
2017-Nov-12 13:00N 36°09' W 005°23'0 0.4
2017-Nov-12 12:30N 36°09' W 005°23'0 0.3
2017-Nov-12 12:00N 36°09' W 005°23'2 0.3
2017-Nov-12 04:39N 36°08' W 005°22'0 0.1
2017-Nov-12 04:24N 36°08' W 005°22'0 0.0
2017-Nov-12 04:00N 36°08' W 005°22'0 0.0
2017-Nov-12 03:24N 36°08' W 005°22'0 0.0
2017-Nov-12 03:00N 36°08' W 005°22'0 0.0
2017-Nov-12 02:24N 36°08' W 005°22'0 0.0
2017-Nov-11 22:21N 36°08' W 005°22'0 0.0
2017-Nov-11 21:51N 36°08' W 005°22'0 0.0
2017-Nov-11 21:30N 36°08' W 005°22'1 1.9
2017-Nov-11 21:00N 36°08' W 005°23'0 0.3
2017-Nov-11 19:39N 36°08' W 005°23'0 0.1
2017-Nov-11 19:27N 36°08' W 005°23'0 0.0
2017-Nov-11 18:15N 36°08' W 005°23'0 0.0
2017-Nov-11 17:57N 36°08' W 005°23'0 0.1
2017-Nov-11 17:27N 36°08' W 005°23'0 0.0
2017-Nov-11 16:57N 36°08' W 005°23'1 0.1
2017-Nov-11 07:15N 36°08' W 005°22'0 0.0
2017-Nov-11 07:00N 36°08' W 005°22'0 0.1
2017-Nov-11 06:30N 36°08' W 005°22'0 0.2
2017-Nov-11 05:45N 36°08' W 005°22'0 0.3
2017-Nov-11 05:30N 36°08' W 005°22'0 0.3
2017-Nov-11 04:57N 36°07' W 005°22'0 0.1
2017-Nov-11 04:27N 36°08' W 005°22'0 0.1
2017-Nov-11 04:00N 36°07' W 005°22'0 0.1
2017-Nov-11 03:30N 36°07' W 005°22'0 0.0
2017-Nov-11 00:39N 36°07' W 005°22'0 0.0
2017-Nov-11 00:24N 36°07' W 005°22'0 0.1
2017-Nov-10 23:48N 36°08' W 005°22'0 0.2
2017-Nov-10 23:30N 36°07' W 005°22'0 0.9
2017-Nov-10 23:00N 36°07' W 005°22'0 0.0
2017-Nov-10 22:27N 36°07' W 005°22'0 0.0
2017-Nov-10 22:00N 36°07' W 005°22'0 0.0
2017-Nov-10 21:21N 36°07' W 005°22'0 0.1
2017-Nov-10 21:00N 36°07' W 005°22'1 0.0
2017-Nov-10 06:30N 36°07' W 005°21'0 0.2
2017-Nov-10 06:00N 36°07' W 005°21'0 0.0
2017-Nov-10 05:30N 36°07' W 005°21'0 0.2
2017-Nov-10 04:48N 36°07' W 005°21'0 0.3
2017-Nov-10 04:29N 36°07' W 005°21'1 1.9
2017-Nov-10 03:51N 36°08' W 005°22'1 0.7
2017-Nov-10 01:46N 36°09' W 005°23'0 0.3
2017-Nov-10 01:29N 36°09' W 005°23'1 2.0
2017-Nov-10 01:00N 36°08' W 005°23'2 2.7
2017-Nov-10 00:19N 36°07' W 005°21'0 0.0
2017-Nov-09 23:49N 36°07' W 005°21'0 0.0
2017-Nov-09 22:49N 36°07' W 005°21'0 0.1
2017-Nov-09 22:13N 36°07' W 005°21'0 0.0
2017-Nov-09 21:55N 36°07' W 005°21'  
Track history (hours):
 
Tides and Currents Weather Stations Pressure Air Temp Water Temp Dewpoint Dewpoint Depression Visibility Wind Speed Wind Dir Waves Ship Positions

Ct Longford

Last reported at 2017-Nov-17 19:12 UTC. Time now 2017-Nov-17 19:59 UTC.
Position N 36°08' W 005°25'.

Length 117 m; draft 7 m.

Type: Tanker. MMSI: 249706000.

Date/timePositionNaut miles runAvg speedWind from/ knotsBaromVisibWave heightAir tempDewpointWater temp
2017-Nov-17 19:12N 36°08' W 005°25'0 2.3
2017-Nov-17 19:01N 36°08' W 005°26'2 0.2
2017-Nov-17 06:09N 36°08' W 005°23'0 0.1
2017-Nov-17 05:57N 36°08' W 005°23'0 0.0
2017-Nov-17 05:24N 36°08' W 005°23'0 0.0
2017-Nov-17 04:57N 36°08' W 005°23'0 0.1
2017-Nov-17 04:30N 36°08' W 005°23'0 0.0
2017-Nov-17 03:57N 36°08' W 005°23'0 0.1
2017-Nov-17 03:24N 36°08' W 005°23'0 0.0
2017-Nov-17 03:00N 36°08' W 005°23'0 0.0
2017-Nov-17 02:30N 36°08' W 005°23'0 0.1
2017-Nov-17 02:00N 36°08' W 005°23'0 0.0
2017-Nov-17 01:24N 36°08' W 005°23'0 0.1
2017-Nov-17 01:00N 36°08' W 005°23'2 0.1
2017-Nov-16 05:46N 36°09' W 005°23'0 0.0
2017-Nov-16 05:28N 36°09' W 005°23'1 2.0
2017-Nov-16 05:00N 36°08' W 005°23'2 4.1
2017-Nov-16 04:29N 36°06' W 005°22'0 0.0
2017-Nov-16 03:56N 36°06' W 005°22'0 0.0
2017-Nov-16 03:26N 36°06' W 005°22'0 0.0
2017-Nov-16 02:53N 36°06' W 005°22'0 0.1
2017-Nov-16 02:08N 36°06' W 005°22'0 0.1
2017-Nov-16 01:56N 36°06' W 005°22'0 0.0
2017-Nov-16 01:29N 36°06' W 005°22'0 0.0
2017-Nov-16 00:59N 36°06' W 005°22'0 0.0
2017-Nov-16 00:26N 36°06' W 005°22'0 0.1
2017-Nov-15 23:59N 36°06' W 005°22'0 0.1
2017-Nov-15 23:29N 36°06' W 005°22'0 0.0
2017-Nov-15 22:02N 36°06' W 005°22'0 0.6
2017-Nov-15 21:59N 36°06' W 005°22'0 0.0
2017-Nov-15 21:30N 36°06' W 005°22'3 0.2
2017-Nov-15 06:35N 36°09' W 005°22'0 0.0
2017-Nov-15 06:05N 36°09' W 005°22'0 0.1
2017-Nov-15 05:59N 36°09' W 005°22'0 0.0
2017-Nov-15 05:29N 36°09' W 005°22'0 0.0
2017-Nov-15 04:56N 36°09' W 005°22'0 0.0
2017-Nov-15 04:23N 36°09' W 005°22'0 0.1
2017-Nov-15 03:39N 36°09' W 005°22'0 0.5
2017-Nov-15 03:29N 36°09' W 005°22'1 3.0
2017-Nov-15 03:00N 36°08' W 005°23'1 0.0
2017-Nov-14 04:39N 36°09' W 005°23'0 0.1
2017-Nov-14 04:21N 36°09' W 005°23'0 0.0
2017-Nov-14 04:00N 36°09' W 005°23'0 0.0
2017-Nov-14 03:30N 36°09' W 005°23'0 0.1
2017-Nov-14 02:51N 36°09' W 005°23'0 0.1
2017-Nov-14 02:21N 36°09' W 005°23'0 0.0
2017-Nov-14 01:51N 36°09' W 005°23'0 0.1
2017-Nov-14 01:30N 36°09' W 005°23'1 1.2
2017-Nov-14 01:00N 36°09' W 005°23'0 0.3
2017-Nov-14 00:30N 36°09' W 005°23'0 0.3
2017-Nov-14 00:00N 36°09' W 005°23'0 0.4
2017-Nov-13 23:30N 36°09' W 005°23'1 3.0
2017-Nov-13 23:00N 36°07' W 005°22'0 0.1
2017-Nov-13 22:30N 36°07' W 005°22'0 0.0
2017-Nov-13 22:00N 36°07' W 005°22'1 0.1
2017-Nov-13 02:00N 36°08' W 005°23'1 2.3
2017-Nov-13 01:28N 36°07' W 005°22'0 0.0
2017-Nov-13 00:55N 36°07' W 005°22'0 0.0
2017-Nov-13 00:28N 36°07' W 005°22'0 0.0
2017-Nov-12 23:58N 36°07' W 005°22'0 0.0
2017-Nov-12 23:28N 36°07' W 005°22'0 0.0
2017-Nov-12 22:10N 36°07' W 005°22'0 0.1
2017-Nov-12 21:58N 36°07' W 005°22'0 0.0
2017-Nov-12 21:28N 36°07' W 005°22'0 0.1
2017-Nov-12 20:28N 36°08' W 005°22'0 0.3
2017-Nov-12 19:58N 36°07' W 005°22'0 0.0
2017-Nov-12 19:28N 36°07' W 005°22'0 0.1
2017-Nov-12 18:58N 36°07' W 005°22'0 0.1
2017-Nov-12 16:46N 36°08' W 005°22'0 0.1
2017-Nov-12 16:25N 36°08' W 005°22'0 0.0
2017-Nov-12 15:55N 36°08' W 005°22'0 0.0
2017-Nov-12 15:28N 36°08' W 005°22'0 0.1
2017-Nov-12 14:59N 36°08' W 005°22'0 0.5
2017-Nov-12 14:31N 36°08' W 005°22'2 3.6
2017-Nov-12 14:00N 36°09' W 005°23'0 0.2
2017-Nov-12 13:30N 36°09' W 005°23'0 0.3
2017-Nov-12 13:00N 36°09' W 005°23'0 0.4
2017-Nov-12 12:30N 36°09' W 005°23'0 0.3
2017-Nov-12 12:00N 36°09' W 005°23'2 0.3
2017-Nov-12 04:39N 36°08' W 005°22'0 0.1
2017-Nov-12 04:24N 36°08' W 005°22'0 0.0
2017-Nov-12 04:00N 36°08' W 005°22'0 0.0
2017-Nov-12 03:24N 36°08' W 005°22'0 0.0
2017-Nov-12 03:00N 36°08' W 005°22'0 0.0
2017-Nov-12 02:24N 36°08' W 005°22'0 0.0
2017-Nov-11 22:21N 36°08' W 005°22'0 0.0
2017-Nov-11 21:51N 36°08' W 005°22'0 0.0
2017-Nov-11 21:30N 36°08' W 005°22'1 1.9
2017-Nov-11 21:00N 36°08' W 005°23'0 0.3
2017-Nov-11 19:39N 36°08' W 005°23'0 0.1
2017-Nov-11 19:27N 36°08' W 005°23'0 0.0
2017-Nov-11 18:15N 36°08' W 005°23'0 0.0
2017-Nov-11 17:57N 36°08' W 005°23'0 0.1
2017-Nov-11 17:27N 36°08' W 005°23'0 0.0
2017-Nov-11 16:57N 36°08' W 005°23'1 0.1
2017-Nov-11 07:15N 36°08' W 005°22'0 0.0
2017-Nov-11 07:00N 36°08' W 005°22'0 0.1
2017-Nov-11 06:30N 36°08' W 005°22'0 0.2
2017-Nov-11 05:45N 36°08' W 005°22'0 0.3
2017-Nov-11 05:30N 36°08' W 005°22'0 0.3
2017-Nov-11 04:57N 36°07' W 005°22'0 0.1
2017-Nov-11 04:27N 36°08' W 005°22'0 0.1
2017-Nov-11 04:00N 36°07' W 005°22'0 0.1
2017-Nov-11 03:30N 36°07' W 005°22'0 0.0
2017-Nov-11 00:39N 36°07' W 005°22'0 0.0
2017-Nov-11 00:24N 36°07' W 005°22'0 0.1
2017-Nov-10 23:48N 36°08' W 005°22'0 0.2
2017-Nov-10 23:30N 36°07' W 005°22'0 0.9
2017-Nov-10 23:00N 36°07' W 005°22'0 0.0
2017-Nov-10 22:27N 36°07' W 005°22'0 0.0
2017-Nov-10 22:00N 36°07' W 005°22'0 0.0
2017-Nov-10 21:21N 36°07' W 005°22'0 0.1
2017-Nov-10 21:00N 36°07' W 005°22'1 0.0
2017-Nov-10 06:30N 36°07' W 005°21'0 0.2
2017-Nov-10 06:00N 36°07' W 005°21'0 0.0
2017-Nov-10 05:30N 36°07' W 005°21'0 0.2
2017-Nov-10 04:48N 36°07' W 005°21'0 0.3
2017-Nov-10 04:29N 36°07' W 005°21'1 1.9
2017-Nov-10 03:51N 36°08' W 005°22'1 0.7
2017-Nov-10 01:46N 36°09' W 005°23'0 0.3
2017-Nov-10 01:29N 36°09' W 005°23'1 2.0
2017-Nov-10 01:00N 36°08' W 005°23'2 2.7
2017-Nov-10 00:19N 36°07' W 005°21'0 0.0
2017-Nov-09 23:49N 36°07' W 005°21'0 0.0
2017-Nov-09 22:49N 36°07' W 005°21'0 0.1
2017-Nov-09 22:13N 36°07' W 005°21'0 0.0
2017-Nov-09 21:55N 36°07' W 005°21'  

Dump ship's entire track history